Time;durP1;ratioP1;P1;durP2;ratioP2;P2;SDS_P1;SDS_P2;PMS_P1;PMS_P2;Temp;Humidity;BMP_temperature;BMP_pressure;BME280_temperature;BME280_humidity;BME280_pressure;Samples;Min_cycle;Max_cycle;Signal;HPM_P1;HPM_P2
2022/04/13 00:00:29;;;;;;;4.90;3.17;;;;;;;-0.87;69.61;96160.22;1783389;80;20967;-71
2022/04/13 00:02:58;;;;;;;4.67;3.23;;;;;;;-1.04;69.61;96160.05;1783099;80;21556;-71
2022/04/13 00:05:25;;;;;;;5.10;3.27;;;;;;;-1.08;69.63;96155.19;1783143;80;21461;-71
2022/04/13 00:07:55;;;;;;;3.57;2.20;;;;;;;-1.04;69.56;96163.52;1783295;80;21054;-71
2022/04/13 00:10:22;;;;;;;4.50;3.10;;;;;;;-1.03;69.82;96162.70;1783258;80;21033;-71
2022/04/13 00:12:49;;;;;;;4.43;2.87;;;;;;;-1.13;69.63;96156.32;1783034;80;21019;-71
2022/04/13 00:15:15;;;;;;;3.53;2.77;;;;;;;-1.14;69.58;96157.13;1783151;80;21038;-71
2022/04/13 00:17:42;;;;;;;6.70;2.80;;;;;;;-1.27;70.13;96166.59;1783473;80;21070;-71
2022/04/13 00:20:11;;;;;;;4.13;2.70;;;;;;;-1.22;70.22;96160.28;1783385;80;20967;-72
2022/04/13 00:22:37;;;;;;;3.33;1.80;;;;;;;-1.31;70.29;96157.84;1783170;80;21026;-71
2022/04/13 00:25:05;;;;;;;5.20;2.70;;;;;;;-1.32;70.77;96159.07;1783139;80;21015;-71
2022/04/13 00:27:32;;;;;;;6.80;2.63;;;;;;;-1.31;70.56;96169.91;1783449;80;20967;-71
2022/04/13 00:29:59;;;;;;;5.20;3.03;;;;;;;-1.24;70.57;96161.93;1783448;80;21041;-71
2022/04/13 00:32:25;;;;;;;6.73;3.20;;;;;;;-1.29;70.58;96172.12;1783633;80;20969;-72
2022/04/13 00:34:52;;;;;;;5.97;3.27;;;;;;;-1.26;70.46;96162.28;1783068;80;21062;-71
2022/04/13 00:37:19;;;;;;;4.27;3.00;;;;;;;-1.21;71.02;96166.83;1783329;80;20979;-71
2022/04/13 00:39:45;;;;;;;4.30;2.43;;;;;;;-1.31;70.76;96169.49;1783189;80;21037;-71
2022/04/13 00:42:11;;;;;;;6.20;1.83;;;;;;;-1.34;70.96;96161.59;1783191;80;21038;-71
2022/04/13 00:44:38;;;;;;;6.10;2.23;;;;;;;-1.55;71.96;96164.70;1783599;80;21181;-71
2022/04/13 00:47:08;;;;;;;4.20;2.40;;;;;;;-1.70;71.10;96161.13;1783408;80;20943;-71
2022/04/13 00:49:36;;;;;;;5.43;2.80;;;;;;;-1.69;71.62;96163.30;1783269;80;21003;-71
2022/04/13 00:52:05;;;;;;;4.53;2.73;;;;;;;-1.58;71.81;96166.77;1783773;80;21034;-71
2022/04/13 00:54:33;;;;;;;3.67;2.33;;;;;;;-1.49;71.55;96159.74;1783530;80;21017;-71
2022/04/13 00:57:09;;;;;;;6.57;3.77;;;;;;;-1.48;71.16;96160.23;1783418;80;20998;-71
2022/04/13 00:59:39;;;;;;;5.17;2.87;;;;;;;-1.62;72.35;96157.12;1783561;80;21013;-71
2022/04/13 01:02:09;;;;;;;11.93;5.47;;;;;;;-1.53;71.93;96157.89;1783376;80;21014;-71
2022/04/13 01:04:36;;;;;;;3.17;2.37;;;;;;;-1.49;72.51;96158.87;1783617;80;21406;-71
2022/04/13 01:07:07;;;;;;;6.87;2.90;;;;;;;-1.57;71.61;96154.28;1783813;80;21040;-71
2022/04/13 01:09:35;;;;;;;3.03;2.37;;;;;;;-1.50;71.73;96157.99;1783555;80;21512;-71
2022/04/13 01:12:03;;;;;;;4.50;3.07;;;;;;;-1.49;72.22;96158.45;1783206;80;21026;-71
2022/04/13 01:14:30;;;;;;;4.07;2.50;;;;;;;-1.48;71.51;96156.34;1783478;80;21046;-71
2022/04/13 01:16:59;;;;;;;4.43;3.33;;;;;;;-1.42;71.74;96154.39;1783435;80;21035;-71
2022/04/13 01:19:27;;;;;;;2.80;2.27;;;;;;;-1.43;71.27;96150.05;1783606;80;21014;-71
2022/04/13 01:21:58;;;;;;;3.90;2.50;;;;;;;-1.43;71.11;96155.23;1783600;80;21007;-71
2022/04/13 01:24:22;;;;;;;4.23;2.53;;;;;;;-1.46;71.30;96156.38;1782920;80;21054;-71
2022/04/13 01:26:48;;;;;;;3.50;2.00;;;;;;;-1.61;71.40;96153.73;1783214;80;21038;-71
2022/04/13 01:29:15;;;;;;;3.23;2.37;;;;;;;-1.63;71.29;96160.55;1783638;80;20951;-71
2022/04/13 01:31:44;;;;;;;4.67;2.57;;;;;;;-1.65;71.40;96156.14;1783226;80;20983;-71
2022/04/13 01:34:11;;;;;;;5.40;2.80;;;;;;;-1.66;71.39;96159.53;1783354;80;21571;-71
2022/04/13 01:36:38;;;;;;;4.87;2.73;;;;;;;-1.65;71.82;96161.31;1783648;80;20982;-71
2022/04/13 01:39:07;;;;;;;5.33;2.40;;;;;;;-1.62;71.53;96157.53;1783466;80;21523;-71
2022/04/13 01:41:34;;;;;;;4.20;2.43;;;;;;;-1.64;71.53;96160.47;1783277;80;21115;-71
2022/04/13 01:44:07;;;;;;;4.37;3.00;;;;;;;-1.73;72.58;96158.86;1783515;80;21110;-72
2022/04/13 01:46:36;;;;;;;6.17;3.40;;;;;;;-1.77;72.72;96158.72;1757480;80;21018;-71
2022/04/13 01:49:03;;;;;;;6.63;2.93;;;;;;;-1.70;73.05;96161.55;1783692;80;20950;-72
2022/04/13 01:51:30;;;;;;;4.93;2.40;;;;;;;-1.67;73.07;96162.53;1783487;80;21010;-72
2022/04/13 01:53:56;;;;;;;4.03;2.10;;;;;;;-1.77;72.13;96160.02;1783475;80;21066;-72
2022/04/13 01:56:23;;;;;;;2.90;2.10;;;;;;;-1.86;71.97;96164.86;1783350;80;21468;-71
2022/04/13 01:58:50;;;;;;;6.27;2.70;;;;;;;-1.94;71.86;96169.25;1783364;80;21011;-72
2022/04/13 02:01:17;;;;;;;4.43;2.40;;;;;;;-1.95;72.21;96167.08;1783377;80;20967;-72
2022/04/13 02:03:44;;;;;;;4.87;2.60;;;;;;;-1.90;72.87;96170.72;1783474;80;21059;-72
2022/04/13 02:06:11;;;;;;;9.97;2.77;;;;;;;-1.93;72.43;96164.15;1783352;80;21370;-72
2022/04/13 02:08:37;;;;;;;4.50;2.30;;;;;;;-1.99;72.45;96171.27;1783685;80;20959;-72
2022/04/13 02:11:04;;;;;;;4.53;2.57;;;;;;;-1.97;72.47;96172.59;1783411;80;21042;-72
2022/04/13 02:13:31;;;;;;;2.50;1.90;;;;;;;-2.01;73.13;96175.91;1783356;80;21015;-72
2022/04/13 02:15:57;;;;;;;5.80;2.43;;;;;;;-2.04;72.89;96168.91;1783652;80;21003;-72
2022/04/13 02:18:24;;;;;;;2.80;2.07;;;;;;;-2.00;72.67;96171.20;1783509;80;21457;-72
2022/04/13 02:20:50;;;;;;;4.67;2.93;;;;;;;-1.99;72.72;96175.53;1783719;80;20990;-72
2022/04/13 02:23:17;;;;;;;3.23;2.37;;;;;;;-1.98;73.29;96171.72;1783683;80;20987;-72
2022/04/13 02:25:43;;;;;;;5.13;2.70;;;;;;;-1.95;72.85;96168.38;1783309;80;21054;-72
2022/04/13 02:28:10;;;;;;;5.97;3.73;;;;;;;-1.98;73.02;96174.73;1783476;80;21001;-72
2022/04/13 02:30:36;;;;;;;3.13;2.47;;;;;;;-2.00;73.05;96173.36;1783486;80;21030;-72
2022/04/13 02:33:03;;;;;;;3.00;2.10;;;;;;;-2.06;73.19;96172.27;1783341;80;21550;-72
2022/04/13 02:35:30;;;;;;;4.20;2.20;;;;;;;-1.98;73.14;96166.97;1783746;80;21029;-72
2022/04/13 02:37:56;;;;;;;3.60;2.27;;;;;;;-1.93;72.89;96167.16;1783457;80;21026;-72
2022/04/13 02:40:22;;;;;;;10.83;5.60;;;;;;;-2.01;72.98;96169.03;1780735;80;20975;-72
2022/04/13 02:42:50;;;;;;;23.53;11.40;;;;;;;-2.07;72.56;96179.53;1774779;81;21092;-72
2022/04/13 02:45:17;;;;;;;3.53;2.00;;;;;;;-2.16;72.59;96170.14;1775010;80;20999;-72
2022/04/13 02:47:43;;;;;;;3.50;2.30;;;;;;;-2.18;72.68;96167.06;1774837;81;21468;-72
2022/04/13 02:50:11;;;;;;;8.57;4.00;;;;;;;-2.12;72.97;96163.83;1775074;81;21042;-72
2022/04/13 02:52:37;;;;;;;7.07;4.27;;;;;;;-2.05;73.34;96164.96;1775036;81;21022;-72
2022/04/13 02:55:08;;;;;;;2.80;2.10;;;;;;;-2.18;73.37;96163.19;1774968;80;20995;-72
2022/04/13 02:57:36;;;;;;;2.90;2.20;;;;;;;-2.28;72.95;96162.77;1775041;81;21059;-72
2022/04/13 03:00:05;;;;;;;6.03;3.70;;;;;;;-2.26;73.21;96163.72;1775061;81;21512;-72
2022/04/13 03:02:31;;;;;;;3.53;2.33;;;;;;;-2.20;73.62;96167.83;1774927;81;21509;-72
2022/04/13 03:04:58;;;;;;;2.30;1.80;;;;;;;-2.24;72.95;96168.55;1775252;81;20987;-72
2022/04/13 03:07:28;;;;;;;2.93;2.10;;;;;;;-2.19;72.88;96163.15;1755399;81;21003;-72
2022/04/13 03:09:54;;;;;;;3.27;2.27;;;;;;;-2.23;72.79;96165.13;1774968;80;21014;-72
2022/04/13 03:12:20;;;;;;;21.23;7.43;;;;;;;-2.15;73.20;96171.47;1774705;81;21509;-72
2022/04/13 03:14:47;;;;;;;2.63;1.87;;;;;;;-2.21;72.67;96164.37;1775219;81;20990;-71
2022/04/13 03:17:13;;;;;;;12.17;2.60;;;;;;;-2.19;73.00;96157.98;1774961;81;21045;-71
2022/04/13 03:19:40;;;;;;;5.67;2.33;;;;;;;-2.20;73.08;96166.12;1775254;80;20982;-71
2022/04/13 03:22:06;;;;;;;3.10;1.63;;;;;;;-2.21;73.01;96160.91;1774886;81;21087;-71
2022/04/13 03:24:34;;;;;;;3.07;2.00;;;;;;;-2.21;72.78;96161.78;1775224;80;20991;-72
2022/04/13 03:27:01;;;;;;;5.07;2.00;;;;;;;-2.20;72.88;96162.66;1774559;81;21022;-72
2022/04/13 03:29:27;;;;;;;2.67;2.07;;;;;;;-2.20;72.62;96172.58;1774800;81;21075;-72
2022/04/13 03:31:54;;;;;;;2.53;1.70;;;;;;;-2.26;72.56;96168.47;1774938;81;21050;-72
2022/04/13 03:34:21;;;;;;;3.60;2.27;;;;;;;-2.32;72.59;96169.92;1774678;81;20979;-71
2022/04/13 03:36:50;;;;;;;3.30;2.50;;;;;;;-2.28;72.71;96177.86;1775117;81;21026;-72
2022/04/13 03:39:17;;;;;;;6.87;2.70;;;;;;;-2.27;73.60;96175.77;1774574;80;21027;-72
2022/04/13 03:41:44;;;;;;;2.97;1.97;;;;;;;-2.27;73.53;96178.73;1780714;80;21011;-74
2022/04/13 03:44:11;;;;;;;4.13;2.70;;;;;;;-2.30;72.76;96182.50;1783320;80;21011;-74
2022/04/13 03:46:37;;;;;;;2.53;1.90;;;;;;;-2.43;72.64;96183.72;1783587;80;21026;-74
2022/04/13 03:49:04;;;;;;;3.83;1.73;;;;;;;-2.36;73.16;96184.86;1783599;80;21045;-71
2022/04/13 03:51:31;;;;;;;2.87;2.13;;;;;;;-2.28;72.88;96181.74;1783357;80;21058;-75
2022/04/13 03:53:57;;;;;;;2.20;2.00;;;;;;;-2.33;72.67;96180.68;1783513;80;20967;-73
2022/04/13 03:56:24;;;;;;;2.27;2.07;;;;;;;-2.26;72.96;96177.52;1783694;80;20987;-74
2022/04/13 03:58:50;;;;;;;8.40;3.87;;;;;;;-2.26;72.42;96184.41;1783395;80;21014;-79
2022/04/13 04:01:17;;;;;;;4.10;1.83;;;;;;;-2.35;72.14;96190.48;1783425;80;20998;-79
2022/04/13 04:03:43;;;;;;;3.10;1.80;;;;;;;-2.47;72.44;96196.02;1783477;80;21465;-80
2022/04/13 04:06:10;;;;;;;2.13;1.77;;;;;;;-2.52;73.10;96191.08;1783466;80;21476;-81
2022/04/13 04:08:37;;;;;;;4.00;2.13;;;;;;;-2.66;73.64;96192.69;1783240;80;20983;-80
2022/04/13 04:11:03;;;;;;;26.23;12.63;;;;;;;-2.65;74.16;96197.44;1783454;80;21010;-77
2022/04/13 04:13:30;;;;;;;12.70;3.87;;;;;;;-2.53;74.63;96200.95;1783151;80;20986;-80
2022/04/13 04:15:57;;;;;;;2.40;1.83;;;;;;;-2.49;74.62;96199.86;1783523;80;21037;-80
2022/04/13 04:18:23;;;;;;;6.13;3.87;;;;;;;-2.48;74.41;96205.90;1783320;80;20967;-79
2022/04/13 04:20:50;;;;;;;15.07;7.57;;;;;;;-2.37;74.73;96210.20;1783425;80;21022;-80
2022/04/13 04:23:16;;;;;;;12.87;6.27;;;;;;;-2.45;73.92;96212.48;1783471;80;21564;-79
2022/04/13 04:25:43;;;;;;;8.50;4.33;;;;;;;-2.42;73.81;96215.18;1783462;80;21038;-79
2022/04/13 04:28:10;;;;;;;19.37;10.10;;;;;;;-2.33;73.76;96216.86;1783527;80;21007;-78
2022/04/13 04:30:42;;;;;;;15.43;8.97;;;;;;;-2.27;74.93;96221.39;1783667;80;21033;-76
2022/04/13 04:33:12;;;;;;;7.73;4.93;;;;;;;-2.11;75.08;96217.33;1783501;80;20983;-77
2022/04/13 04:35:39;;;;;;;16.10;8.50;;;;;;;-2.00;75.06;96227.67;1783850;80;21083;-77
2022/04/13 04:38:06;;;;;;;28.83;15.80;;;;;;;-1.79;74.64;96224.16;1783539;80;21109;-77
2022/04/13 04:40:32;;;;;;;5.00;2.70;;;;;;;-1.71;73.94;96216.30;1783467;80;21013;-77
2022/04/13 04:42:58;;;;;;;5.33;2.90;;;;;;;-1.73;74.13;96221.82;1783386;80;21097;-77
2022/04/13 04:45:25;;;;;;;6.93;3.67;;;;;;;-1.66;74.23;96225.51;1783664;80;20970;-77
2022/04/13 04:47:53;;;;;;;8.60;5.40;;;;;;;-1.59;74.23;96218.45;1783563;80;20983;-76
2022/04/13 04:50:23;;;;;;;14.13;5.20;;;;;;;-1.60;74.48;96218.88;1783541;80;20994;-77
2022/04/13 04:52:50;;;;;;;26.80;14.70;;;;;;;-1.57;74.60;96220.69;1783636;80;21010;-77
2022/04/13 04:55:18;;;;;;;28.30;16.13;;;;;;;-1.48;75.84;96230.11;1783484;80;20986;-77
2022/04/13 04:57:46;;;;;;;33.17;18.53;;;;;;;-1.34;75.84;96229.31;1783415;80;21054;-76
2022/04/13 05:00:20;;;;;;;27.77;15.50;;;;;;;-1.21;75.41;96230.27;1783752;80;20993;-77
2022/04/13 05:02:48;;;;;;;17.87;10.13;;;;;;;-0.98;75.21;96225.03;1783538;80;21025;-77
2022/04/13 05:05:16;;;;;;;26.37;14.10;;;;;;;-0.78;74.31;96228.30;1783640;80;20986;-76
2022/04/13 05:07:44;;;;;;;24.30;13.13;;;;;;;-0.75;74.07;96223.25;1783430;80;21074;-74
2022/04/13 05:10:11;;;;;;;17.43;11.23;;;;;;;-0.58;73.62;96223.42;1783517;80;20998;-76
2022/04/13 05:12:49;;;;;;;25.73;12.67;;;;;;;-0.45;72.95;96224.72;1783390;80;21508;-69
2022/04/13 05:15:16;;;;;;;21.47;12.50;;;;;;;-0.31;72.16;96229.05;1783457;80;21021;-71
2022/04/13 05:17:43;;;;;;;17.60;10.50;;;;;;;-0.20;72.09;96218.64;1783611;80;20995;-75
2022/04/13 05:20:11;;;;;;;17.63;9.33;;;;;;;-0.11;72.06;96215.45;1783610;80;21567;-75
2022/04/13 05:22:38;;;;;;;15.37;9.13;;;;;;;0.07;71.70;96221.64;1783178;80;21054;-72
2022/04/13 05:25:13;;;;;;;14.67;8.53;;;;;;;0.22;71.29;96214.33;1783482;80;21066;-74
2022/04/13 05:27:41;;;;;;;10.97;7.20;;;;;;;0.36;71.22;96218.25;1783419;80;20955;-78
2022/04/13 05:30:10;;;;;;;11.47;7.80;;;;;;;0.48;70.73;96215.15;1783443;80;21029;-77
2022/04/13 05:33:01;;;;;;;13.53;9.10;;;;;;;0.59;70.72;96215.47;1783608;80;21014;-77
2022/04/13 05:35:29;;;;;;;13.03;7.77;;;;;;;0.78;70.83;96221.67;1783364;80;21066;-70
2022/04/13 05:37:56;;;;;;;15.03;7.77;;;;;;;0.95;69.92;96220.83;1783473;80;21018;-73
2022/04/13 05:40:24;;;;;;;12.43;7.67;;;;;;;1.05;69.61;96228.47;1783515;80;21496;-75
2022/04/13 05:42:53;;;;;;;9.67;7.63;;;;;;;1.17;69.72;96226.22;1783172;80;21045;-76
2022/04/13 05:45:19;;;;;;;11.63;7.17;;;;;;;1.30;69.20;96233.51;1783634;80;21007;-73
2022/04/13 05:47:46;;;;;;;11.93;9.03;;;;;;;1.41;69.01;96229.92;1783696;80;21456;-75
2022/04/13 05:50:14;;;;;;;9.67;6.23;;;;;;;1.52;68.61;96234.10;1783338;80;20990;-75
2022/04/13 05:52:43;;;;;;;10.47;7.10;;;;;;;1.61;67.74;96233.02;1783485;80;20975;-77
2022/04/13 05:55:11;;;;;;;11.53;7.27;;;;;;;1.79;68.23;96226.53;1782811;80;21152;-75
2022/04/13 05:57:38;;;;;;;11.87;8.00;;;;;;;1.90;67.33;96226.41;1781109;80;21092;-75
2022/04/13 06:00:08;;;;;;;11.47;8.47;;;;;;;2.01;67.46;96232.73;1782168;80;21089;-75
2022/04/13 06:02:35;;;;;;;16.03;8.97;;;;;;;2.14;66.89;96230.00;1781662;80;21013;-77
2022/04/13 06:05:03;;;;;;;13.27;8.97;;;;;;;2.27;66.48;96237.69;1781950;80;21049;-75
2022/04/13 06:07:30;;;;;;;12.07;8.53;;;;;;;2.42;67.02;96243.28;1783381;80;20998;-73
2022/04/13 06:10:01;;;;;;;14.13;8.27;;;;;;;2.54;65.63;96239.62;1781615;80;21049;-73
2022/04/13 06:12:25;;;;;;;13.60;8.80;;;;;;;2.65;66.07;96230.78;1781089;80;21034;-75
2022/04/13 06:14:51;;;;;;;15.17;10.33;;;;;;;2.80;65.75;96241.53;1781345;80;21139;-72
2022/04/13 06:17:18;;;;;;;18.23;10.73;;;;;;;2.96;65.74;96237.95;1782698;80;21499;-74
2022/04/13 06:19:44;;;;;;;12.80;8.80;;;;;;;3.13;65.50;96242.22;1781902;80;21036;-74
2022/04/13 06:22:10;;;;;;;9.73;6.30;;;;;;;3.30;65.62;96239.53;1781515;80;21653;-75
2022/04/13 06:24:37;;;;;;;9.20;5.07;;;;;;;3.50;65.33;96242.92;1781877;80;21049;-75
2022/04/13 06:27:04;;;;;;;21.73;9.43;;;;;;;3.66;64.03;96239.34;1782171;80;21038;-74
2022/04/13 06:29:30;;;;;;;142.00;72.57;;;;;;;3.83;62.96;96234.83;1781858;80;21002;-76
2022/04/13 06:31:57;;;;;;;24.60;13.83;;;;;;;4.00;61.50;96234.70;1782159;80;21018;-73
2022/04/13 06:34:23;;;;;;;13.40;5.20;;;;;;;4.18;61.62;96228.03;1782052;80;21511;-74
2022/04/13 06:36:50;;;;;;;16.23;3.97;;;;;;;4.38;61.81;96234.45;1782538;80;20994;-75
2022/04/13 06:39:16;;;;;;;11.17;4.23;;;;;;;4.52;57.24;96229.02;1782229;80;21118;-75
2022/04/13 06:41:42;;;;;;;9.53;3.83;;;;;;;4.68;57.10;96230.11;1782115;80;21053;-74
2022/04/13 06:44:09;;;;;;;7.10;4.90;;;;;;;4.83;55.99;96225.96;1782073;80;21002;-74
2022/04/13 06:46:36;;;;;;;5.77;4.47;;;;;;;5.01;57.91;96228.81;1781816;80;21078;-74
2022/04/13 06:49:04;;;;;;;5.87;3.40;;;;;;;5.17;54.50;96224.24;1782254;80;21105;-75
2022/04/13 06:51:31;;;;;;;6.23;2.80;;;;;;;5.30;52.33;96222.66;1781329;80;21080;-73
2022/04/13 06:53:57;;;;;;;4.43;3.00;;;;;;;5.46;55.12;96226.75;1781329;80;21061;-73
2022/04/13 06:56:24;;;;;;;4.30;2.47;;;;;;;5.54;54.16;96218.11;1781652;80;21033;-73
2022/04/13 06:58:50;;;;;;;8.63;3.00;;;;;;;5.67;53.16;96222.17;1781334;80;21054;-74
2022/04/13 07:01:17;;;;;;;7.57;3.00;;;;;;;5.81;54.96;96225.38;1756374;80;21069;-73
2022/04/13 07:03:44;;;;;;;6.20;3.10;;;;;;;5.99;55.01;96226.45;1781480;80;21523;-73
2022/04/13 07:06:10;;;;;;;5.60;3.20;;;;;;;6.14;54.32;96218.73;1781865;80;21058;-73
2022/04/13 07:08:38;;;;;;;4.20;3.20;;;;;;;6.29;53.15;96227.16;1756294;80;21010;-75
2022/04/13 07:11:06;;;;;;;15.43;9.53;;;;;;;6.39;52.35;96226.36;1781612;80;21156;-79
2022/04/13 07:13:33;;;;;;;4.33;3.40;;;;;;;6.52;50.09;96225.15;1781487;80;21627;-75
2022/04/13 07:15:59;;;;;;;8.17;2.97;;;;;;;6.66;51.49;96228.31;1781916;80;21054;-72
2022/04/13 07:18:26;;;;;;;7.80;3.00;;;;;;;6.81;52.05;96230.16;1781058;80;21057;-73
2022/04/13 07:20:52;;;;;;;4.83;2.80;;;;;;;6.96;52.41;96235.07;1781619;80;21026;-72
2022/04/13 07:23:19;;;;;;;17.17;3.07;;;;;;;7.07;49.54;96229.43;1780956;80;21015;-73
2022/04/13 07:25:46;;;;;;;9.13;3.50;;;;;;;7.18;51.03;96234.28;1781884;80;21076;-72
2022/04/13 07:28:13;;;;;;;4.50;3.83;;;;;;;7.23;48.03;96227.34;1781022;80;21578;-76
2022/04/13 07:30:40;;;;;;;8.57;4.93;;;;;;;7.35;48.36;96233.05;1781910;80;21089;-77
2022/04/13 07:33:06;;;;;;;9.97;3.90;;;;;;;7.42;47.56;96231.34;1781105;80;21077;-76
2022/04/13 07:35:33;;;;;;;4.40;2.87;;;;;;;7.55;49.09;96234.00;1781370;80;21053;-79
2022/04/13 07:38:00;;;;;;;7.10;3.70;;;;;;;7.69;48.40;96224.87;1781615;80;21074;-79
2022/04/13 07:40:27;;;;;;;3.40;2.20;;;;;;;7.83;48.43;96235.39;1781816;80;21132;-72
2022/04/13 07:42:53;;;;;;;3.20;2.27;;;;;;;7.89;44.68;96234.11;1781832;80;21046;-71
2022/04/13 07:45:20;;;;;;;3.67;2.60;;;;;;;7.94;43.20;96238.07;1783216;80;21037;-68
2022/04/13 07:47:46;;;;;;;7.63;4.70;;;;;;;8.10;46.47;96235.89;1782885;80;21077;-75
2022/04/13 07:50:13;;;;;;;5.07;2.73;;;;;;;8.16;41.98;96233.70;1782513;80;21025;-71
2022/04/13 07:52:42;;;;;;;20.83;17.97;;;;;;;8.08;36.97;96239.39;1783003;80;21058;-70
2022/04/13 07:55:11;;;;;;;3.63;3.20;;;;;;;8.17;41.25;96232.40;1782938;80;21061;-75
2022/04/13 07:57:39;;;;;;;3.23;2.50;;;;;;;8.26;39.69;96235.91;1782292;80;21046;-78
2022/04/13 08:00:12;;;;;;;6.83;2.67;;;;;;;8.30;38.99;96235.04;1782451;80;21042;-78
2022/04/13 08:02:41;;;;;;;4.10;2.35;;;;;;;8.43;42.29;96236.37;1782965;80;21025;-71
2022/04/13 08:05:09;;;;;;;3.20;2.30;;;;;;;8.61;42.59;96235.49;1782909;80;21029;-74
2022/04/13 08:07:35;;;;;;;3.30;2.40;;;;;;;8.79;42.33;96224.52;1783010;80;21058;-67
2022/04/13 08:10:03;;;;;;;4.50;2.30;;;;;;;8.98;42.75;96223.61;1783510;80;20978;-69
2022/04/13 08:12:31;;;;;;;5.13;2.70;;;;;;;9.14;41.89;96222.25;1782939;80;21104;-69
2022/04/13 08:14:58;;;;;;;3.60;2.27;;;;;;;9.29;42.19;96221.75;1782625;80;21021;-68
2022/04/13 08:17:26;;;;;;;4.13;2.57;;;;;;;9.36;39.09;96223.93;1782701;80;21113;-68
2022/04/13 08:19:53;;;;;;;15.00;11.00;;;;;;;9.36;38.15;96220.43;1782443;80;21070;-67
2022/04/13 08:22:26;;;;;;;8.47;4.40;;;;;;;9.41;39.00;96218.66;1783508;80;21500;-66
2022/04/13 08:24:53;;;;;;;2.22;2.02;;;;;;;9.51;39.19;96218.59;1782854;80;21037;-66
2022/04/13 08:27:20;;;;;;;5.00;2.30;;;;;;;9.66;39.04;96216.78;1783202;80;21017;-67
2022/04/13 08:29:47;;;;;;;6.67;5.27;;;;;;;9.78;38.66;96213.19;1782804;80;21475;-67
2022/04/13 08:32:16;;;;;;;2.50;2.20;;;;;;;9.96;40.31;96209.14;1782310;80;21630;-67
2022/04/13 08:34:43;;;;;;;3.40;2.23;;;;;;;10.01;36.26;96203.40;1782309;80;21558;-67
2022/04/13 08:37:10;;;;;;;3.63;2.10;;;;;;;10.11;38.14;96206.86;1782549;80;20963;-67
2022/04/13 08:39:37;;;;;;;3.77;2.13;;;;;;;10.12;35.11;96212.09;1782805;80;21006;-67
2022/04/13 08:42:37;;;;;;;4.47;2.20;;;;;;;10.19;35.94;96212.94;1782625;80;21106;-67
2022/04/13 08:45:22;;;;;;;3.43;2.20;;;;;;;10.27;36.31;96206.29;1782503;80;21574;-67
2022/04/13 08:47:50;;;;;;;2.97;2.00;;;;;;;10.48;37.99;96210.12;1782525;80;21011;-67
2022/04/13 08:50:18;;;;;;;4.20;2.30;;;;;;;10.68;36.82;96205.09;1783138;80;21021;-68
2022/04/13 08:52:51;;;;;;;5.27;2.63;;;;;;;10.79;36.46;96202.80;1783856;80;21003;-67
2022/04/13 08:55:21;;;;;;;13.18;8.20;;;;;;;10.81;34.41;96207.62;1757604;80;21480;-67
2022/04/13 08:57:52;;;;;;;4.20;2.17;;;;;;;10.80;33.22;96203.66;1783653;80;21524;-67
2022/04/13 09:00:20;;;;;;;3.90;1.90;;;;;;;10.80;32.72;96203.21;1783343;80;21070;-67
2022/04/13 09:03:04;;;;;;;3.70;2.03;;;;;;;10.86;34.05;96197.44;1783809;80;21066;-68
2022/04/13 09:05:33;;;;;;;4.80;2.20;;;;;;;10.90;32.14;96197.40;1780677;80;21539;-69
2022/04/13 09:08:22;;;;;;;3.63;2.20;;;;;;;10.85;31.93;96187.33;1782299;80;21052;-68
2022/04/13 09:10:54;;;;;;;3.10;2.27;;;;;;;10.98;33.51;96185.44;1781823;80;21069;-67
2022/04/13 09:13:24;;;;;;;4.93;2.20;;;;;;;11.07;31.67;96181.38;1782862;80;21065;-68
2022/04/13 09:15:52;;;;;;;5.20;2.40;;;;;;;11.10;33.46;96189.27;1782389;80;21018;-68
2022/04/13 09:18:18;;;;;;;3.43;2.10;;;;;;;11.30;37.79;96182.44;1775079;80;20987;-68
2022/04/13 09:20:45;;;;;;;4.37;2.23;;;;;;;11.55;34.53;96179.50;1725198;83;21044;-68
2022/04/13 09:23:14;;;;;;;4.33;2.20;;;;;;;11.78;34.89;96180.05;1725790;83;21035;-68
2022/04/13 09:25:41;;;;;;;2.90;1.90;;;;;;;11.90;32.36;96171.11;1725658;83;21009;-68
2022/04/13 09:28:08;;;;;;;4.70;1.80;;;;;;;11.91;32.24;96172.39;1699761;83;21026;-68
2022/04/13 09:30:35;;;;;;;6.37;2.02;;;;;;;11.94;30.71;96166.64;1725919;83;21097;-68
2022/04/13 09:33:03;;;;;;;3.75;2.00;;;;;;;12.10;32.58;96175.66;1726294;83;21541;-69
2022/04/13 09:35:34;;;;;;;3.47;1.90;;;;;;;12.14;32.22;96159.27;1699599;83;21021;-69
2022/04/13 09:38:07;;;;;;;3.60;2.20;;;;;;;12.25;33.46;96157.80;1725339;83;21061;-69
2022/04/13 09:40:41;;;;;;;3.60;1.85;;;;;;;12.53;35.25;96152.91;1725501;83;21042;-68
2022/04/13 09:43:16;;;;;;;2.55;1.90;;;;;;;12.76;33.65;96145.43;1721995;83;21045;-69
2022/04/13 09:45:46;;;;;;;4.65;2.40;;;;;;;12.85;31.54;96152.34;1719690;83;21053;-68
2022/04/13 09:48:19;;;;;;;2.45;1.72;;;;;;;13.07;33.47;96147.95;1756489;82;21111;-68
2022/04/13 09:50:49;;;;;;;3.33;2.12;;;;;;;13.02;30.86;96155.98;1757088;82;21036;-68
2022/04/13 09:53:18;;;;;;;3.20;1.95;;;;;;;13.06;31.90;96148.41;1757650;81;21005;-68
2022/04/13 09:55:59;;;;;;;3.02;2.10;;;;;;;13.26;34.19;96149.80;1757057;82;21519;-68
2022/04/13 09:58:33;;;;;;;3.72;2.25;;;;;;;13.36;31.61;96142.98;1757170;81;21013;-68
2022/04/13 10:01:02;;;;;;;3.12;1.65;;;;;;;13.51;32.65;96145.77;1756653;81;21084;-68
2022/04/13 10:03:29;;;;;;;4.78;1.90;;;;;;;13.68;31.32;96141.40;1756338;81;21159;-68
2022/04/13 10:05:58;;;;;;;3.90;2.30;;;;;;;13.92;31.67;96145.30;1755981;82;21075;-68
2022/04/13 10:08:28;;;;;;;5.62;2.17;;;;;;;14.06;31.08;96137.00;1755940;81;21534;-68
2022/04/13 10:10:57;;;;;;;2.95;2.00;;;;;;;14.20;29.45;96142.00;1756638;82;21064;-68
2022/04/13 10:13:37;;;;;;;2.47;1.72;;;;;;;13.92;27.87;96132.03;1756892;81;21005;-68
2022/04/13 10:16:07;;;;;;;5.45;1.85;;;;;;;13.81;28.74;96126.98;1756670;81;21021;-69
2022/04/13 10:18:58;;;;;;;2.80;1.70;;;;;;;13.95;27.40;96128.44;1757097;82;20997;-68
2022/04/13 10:21:41;;;;;;;2.67;1.80;;;;;;;14.01;27.60;96126.52;1745773;81;21029;-69
2022/04/13 10:24:21;;;;;;;4.45;1.70;;;;;;;14.07;27.70;96128.15;1757019;82;21495;-68
2022/04/13 10:27:19;;;;;;;2.37;1.72;;;;;;;14.04;25.86;96129.55;1756167;82;21056;-68
2022/04/13 10:29:48;;;;;;;5.65;2.22;;;;;;;13.95;27.32;96123.99;1756746;82;21006;-68
2022/04/13 10:32:24;;;;;;;2.47;1.72;;;;;;;13.99;25.62;96132.31;1757036;82;21001;-68
2022/04/13 10:34:59;;;;;;;2.35;1.70;;;;;;;13.83;25.22;96129.58;1757244;82;21464;-68
2022/04/13 10:37:27;;;;;;;2.15;1.82;;;;;;;13.96;26.10;96130.16;1756990;82;21041;-68
2022/04/13 10:39:54;;;;;;;4.00;2.20;;;;;;;13.98;27.36;96126.57;1757132;82;21504;-68
2022/04/13 10:42:21;;;;;;;3.33;2.10;;;;;;;14.09;25.04;96126.80;1755882;81;21089;-68
2022/04/13 10:45:05;;;;;;;3.15;2.30;;;;;;;14.10;25.26;96131.19;1748999;81;21006;-68
2022/04/13 10:47:52;;;;;;;2.45;1.95;;;;;;;13.93;24.76;96121.83;1748566;81;21093;-68
2022/04/13 10:50:55;;;;;;;2.75;1.95;;;;;;;14.17;25.42;96119.52;1748923;82;21014;-68
2022/04/13 10:53:30;;;;;;;2.72;2.08;;;;;;;14.23;26.00;96118.03;1749139;82;21062;-69
2022/04/13 10:56:01;;;;;;;2.40;1.98;;;;;;;14.23;27.62;96116.70;1749164;82;20997;-69
2022/04/13 10:59:05;;;;;;;4.15;1.92;;;;;;;14.43;24.96;96118.86;1749055;82;21551;-68
2022/04/13 11:01:38;;;;;;;3.30;1.98;;;;;;;14.28;22.66;96123.63;1749257;82;20994;-68
2022/04/13 11:04:07;;;;;;;2.80;2.00;;;;;;;14.20;23.20;96113.67;1748612;81;20994;-68
2022/04/13 11:06:36;;;;;;;1.87;1.40;;;;;;;14.14;21.99;96117.81;1749113;81;20997;-68
2022/04/13 11:09:14;;;;;;;2.60;1.55;;;;;;;14.17;22.05;96111.56;1749233;82;21097;-68
2022/04/13 11:11:43;;;;;;;2.72;1.60;;;;;;;14.31;21.47;96120.49;1749165;82;21611;-68
2022/04/13 11:14:23;;;;;;;4.15;1.75;;;;;;;14.31;20.70;96114.72;1749123;82;21005;-68
2022/04/13 11:17:10;;;;;;;2.87;1.50;;;;;;;14.33;22.11;96112.91;1746768;81;21014;-68
2022/04/13 11:19:37;;;;;;;3.37;1.70;;;;;;;14.76;24.99;96109.64;1748814;82;21057;-68
2022/04/13 11:22:09;;;;;;;2.05;1.52;;;;;;;15.06;21.95;96098.63;1749279;82;21017;-68
2022/04/13 11:24:40;;;;;;;2.42;1.70;;;;;;;15.05;21.88;96100.88;1749285;82;21048;-68
2022/04/13 11:27:10;;;;;;;3.02;1.82;;;;;;;15.51;21.73;96099.54;1749169;81;21004;-68
2022/04/13 11:29:41;;;;;;;4.62;1.98;;;;;;;15.65;20.75;96097.34;1748983;82;21005;-68
2022/04/13 11:32:14;;;;;;;2.47;1.52;;;;;;;15.75;19.96;96097.97;1748783;81;21492;-68
2022/04/13 11:34:49;;;;;;;;;;;;;;;15.86;19.59;96093.17;1751618;82;21573;-68
2022/04/13 11:37:24;;;;;;;2.08;1.60;;;;;;;16.11;19.02;96095.93;1750014;81;20097;-68
2022/04/13 11:40:10;;;;;;;2.12;1.55;;;;;;;16.50;19.35;96098.64;1749045;82;21044;-68
2022/04/13 11:42:45;;;;;;;2.33;1.80;;;;;;;16.71;19.24;96099.73;1749843;81;21021;-68